This is the latest recevied weather packets stored in our database for station/object WB4ZUT. If no packets are shown the sender has not sent any weather packets the latest 10 day(s).
| Time | Temp. | Humidity | Pressure | Rain* | Wind** | Luminosity | Snow |
|---|---|---|---|---|---|---|---|
| 1777487212 | 20° C | 65% | 1013.9 hPa | 0 mm | - | 237 W/m² | - |
| 1777486909 | 19.44° C | 65% | 1014 hPa | 0 mm | - | 824 W/m² | - |
| 1777486605 | 19.44° C | 67% | 1013.9 hPa | 0 mm | - | 927 W/m² | - |
| 1777486303 | 20° C | 67% | 1013.8 hPa | 0 mm | - | 940 W/m² | - |
| 1777486000 | 19.44° C | 68% | 1014 hPa | 0 mm | - | 359 W/m² | - |
| 1777485697 | 19.44° C | 69% | 1014 hPa | 0 mm | - | 827 W/m² | - |
| 1777485392 | 19.44° C | 67% | 1014.1 hPa | 0 mm | - | 298 W/m² | - |
| 1777485088 | 19.44° C | 65% | 1014.1 hPa | 0 mm | - | 721 W/m² | - |
| 1777484786 | 18.89° C | 69% | 1014.2 hPa | 0 mm | - | 754 W/m² | - |
| 1777484481 | 19.44° C | 67% | 1014.2 hPa | 0 mm | - | 334 W/m² | - |
| 1777484180 | 19.44° C | 69% | 1014.2 hPa | 0 mm | - | 835 W/m² | - |
| 1777483875 | 18.89° C | 70% | 1014.3 hPa | 0 mm | - | 890 W/m² | - |
| 1777483571 | 18.89° C | 70% | 1014.3 hPa | 0 mm | - | 851 W/m² | - |
| 1777483266 | 18.33° C | 71% | 1014.2 hPa | 0 mm | - | 829 W/m² | - |
| 1777482963 | 18.33° C | 70% | 1014.2 hPa | 0 mm | - | 429 W/m² | - |
| 1777482659 | 18.33° C | 68% | 1014.3 hPa | 0 mm | - | 285 W/m² | - |
| 1777482356 | 18.89° C | 69% | 1014 hPa | 0 mm | - | 800 W/m² | - |
| 1777482053 | 18.89° C | 70% | 1013.9 hPa | 0 mm | - | 286 W/m² | - |
| 1777481751 | 18.89° C | 71% | 1014 hPa | 0 mm | - | 250 W/m² | - |
| 1777481448 | 19.44° C | 69% | 1014.2 hPa | 0 mm | - | 308 W/m² | - |
| 1777481144 | 20° C | 71% | 1014.1 hPa | 0 mm | - | 327 W/m² | - |
| 1777480841 | 18.89° C | 73% | 1014.4 hPa | 0 mm | - | 840 W/m² | - |
| 1777480538 | 18.89° C | 72% | 1014.3 hPa | 0 mm | - | 255 W/m² | - |
| 1777480234 | 19.44° C | 73% | 1014.3 hPa | 0 mm | - | 740 W/m² | - |
| 1777479931 | 18.89° C | 74% | 1014.4 hPa | 0 mm | - | 923 W/m² | - |
* Rain latest hour (hover to see other rain measurements)
** Current wind speed in m/s (hover to see current wind gust speed)